createdAt,value
2019-02-21T00:02:25.921Z,99.90
2019-02-21T00:04:56.375Z,99.90
2019-02-21T00:07:26.971Z,1.00
2019-02-21T00:09:57.501Z,99.90
2019-02-21T00:12:28.084Z,99.90
2019-02-21T00:14:58.609Z,1.00
2019-02-21T00:17:29.219Z,99.90
2019-02-21T00:20:00.202Z,1.00
2019-02-21T00:22:31.344Z,1.00
2019-02-21T00:25:02.098Z,99.90
2019-02-21T00:27:32.629Z,1.00
2019-02-21T00:30:03.084Z,99.90
2019-02-21T00:32:33.646Z,1.00
2019-02-21T00:35:04.198Z,1.00
2019-02-21T00:37:34.773Z,1.00
2019-02-21T00:40:05.935Z,99.90
2019-02-21T00:42:36.459Z,99.90
2019-02-21T00:45:07.187Z,99.90
2019-02-21T00:47:37.699Z,1.00
2019-02-21T00:50:08.257Z,1.00
2019-02-21T00:52:38.845Z,1.00
2019-02-21T00:55:09.592Z,1.00
2019-02-21T00:57:40.463Z,99.90
2019-02-21T01:00:13.498Z,1.00
2019-02-21T01:02:44.020Z,99.90
2019-02-21T01:05:14.945Z,99.90
2019-02-21T01:07:45.493Z,99.90
2019-02-21T01:10:16.034Z,1.00
2019-02-21T01:12:46.603Z,1.00
2019-02-21T01:15:17.393Z,99.90
2019-02-21T01:17:48.213Z,1.00
2019-02-21T01:20:18.702Z,1.00
2019-02-21T01:22:49.236Z,1.00
2019-02-21T01:25:19.836Z,1.00
2019-02-21T01:27:50.296Z,1.00
2019-02-21T01:30:20.891Z,1.00
2019-02-21T01:32:51.412Z,99.90
2019-02-21T01:35:21.980Z,99.90
2019-02-21T01:37:52.942Z,99.90
2019-02-21T01:40:23.524Z,99.90
2019-02-21T01:42:53.987Z,99.90
2019-02-21T01:45:24.577Z,40.10
2019-02-21T01:47:55.110Z,1.00
2019-02-21T01:50:25.739Z,99.90
2019-02-21T01:52:56.189Z,99.90
2019-02-21T01:55:27.007Z,99.90
2019-02-21T01:57:57.527Z,1.00
2019-02-21T02:00:27.990Z,99.90
2019-02-21T02:02:59.192Z,4.60
2019-02-21T02:05:29.827Z,99.90
2019-02-21T02:08:00.721Z,99.90
2019-02-21T02:10:31.201Z,1.00
2019-02-21T02:13:02.170Z,99.90
2019-02-21T02:15:32.942Z,99.90
2019-02-21T02:18:03.456Z,99.90
2019-02-21T02:20:33.948Z,99.90
2019-02-21T02:23:04.488Z,1.00
2019-02-21T02:25:35.100Z,99.90
2019-02-21T02:28:05.954Z,1.00
2019-02-21T02:30:36.648Z,99.90
2019-02-21T02:33:07.164Z,1.00
2019-02-21T02:35:37.803Z,99.90
2019-02-21T02:38:08.605Z,1.00
2019-02-21T02:40:39.491Z,1.00
2019-02-21T02:43:09.970Z,99.90
2019-02-21T02:45:41.610Z,83.80
2019-02-21T02:48:12.150Z,99.90
2019-02-21T02:50:42.653Z,99.90
2019-02-21T02:53:13.617Z,99.90
2019-02-21T02:55:44.168Z,99.90
2019-02-21T02:58:14.821Z,99.90
2019-02-21T03:00:45.278Z,99.90
2019-02-21T03:03:16.157Z,99.90
2019-02-21T03:05:46.713Z,99.90
2019-02-21T03:08:17.278Z,1.00
2019-02-21T03:10:47.812Z,1.00
2019-02-21T03:13:18.400Z,17.60
2019-02-21T03:15:48.861Z,1.00
2019-02-21T03:18:19.450Z,1.00
2019-02-21T03:20:49.966Z,1.00
2019-02-21T03:23:20.949Z,1.00
2019-02-21T03:25:51.612Z,99.90
2019-02-21T03:28:22.164Z,99.90
2019-02-21T03:30:52.979Z,99.90
2019-02-21T03:33:23.935Z,99.90
2019-02-21T03:35:54.802Z,99.90
2019-02-21T03:38:25.789Z,99.90
2019-02-21T03:40:56.625Z,1.00
2019-02-21T03:43:27.889Z,1.00
2019-02-21T03:45:58.385Z,99.90
2019-02-21T03:48:28.938Z,2.90
2019-02-21T03:50:59.380Z,1.00
2019-02-21T03:53:30.315Z,40.70
2019-02-21T03:56:01.216Z,1.00
2019-02-21T03:58:31.758Z,34.50
2019-02-21T04:01:02.256Z,11.20
2019-02-21T04:03:32.711Z,88.60
2019-02-21T04:06:03.209Z,99.90
2019-02-21T04:08:33.708Z,99.90
2019-02-21T04:11:04.339Z,99.90
2019-02-21T04:13:34.810Z,99.90
2019-02-21T04:16:06.579Z,99.90
2019-02-21T04:18:37.119Z,99.90
2019-02-21T04:21:07.604Z,99.90
2019-02-21T04:23:38.137Z,99.90
2019-02-21T04:26:08.750Z,99.90
2019-02-21T04:28:39.649Z,99.90
2019-02-21T04:31:10.181Z,99.90
2019-02-21T04:33:40.652Z,99.90
2019-02-21T04:36:11.267Z,99.90
2019-02-21T04:38:42.479Z,99.90
2019-02-21T04:41:13.053Z,99.90
2019-02-21T04:43:43.574Z,99.90
2019-02-21T04:46:14.212Z,99.90
2019-02-21T04:48:44.744Z,99.90
2019-02-21T04:51:16.504Z,99.90
2019-02-21T04:53:47.039Z,99.90
2019-02-21T04:56:17.647Z,99.90
2019-02-21T04:58:48.265Z,99.90
2019-02-21T05:01:18.788Z,99.90
2019-02-21T05:03:49.346Z,99.90
2019-02-21T05:06:20.546Z,99.90
2019-02-21T05:08:51.454Z,99.90
2019-02-21T05:11:22.011Z,99.90
2019-02-21T05:13:52.553Z,99.90
2019-02-21T05:16:23.015Z,99.90
2019-02-21T05:18:53.910Z,99.90
2019-02-21T05:21:24.475Z,99.90
2019-02-21T05:23:55.108Z,99.90
2019-02-21T05:26:33.733Z,99.90
2019-02-21T05:29:05.745Z,99.90
2019-02-21T05:31:44.026Z,99.90
2019-02-21T05:34:42.768Z,99.90
2019-02-21T05:37:32.209Z,99.90
2019-02-21T05:40:20.297Z,99.90
2019-02-21T05:43:12.853Z,99.90
2019-02-21T05:46:20.766Z,99.90
2019-02-21T05:49:13.005Z,99.90
2019-02-21T05:51:50.868Z,99.90
2019-02-21T05:54:32.849Z,99.90
2019-02-21T05:57:20.954Z,99.90
2019-02-21T06:00:05.531Z,99.90
2019-02-21T06:02:52.516Z,99.90
2019-02-21T06:05:26.157Z,99.90
2019-02-21T06:08:24.867Z,99.90
2019-02-21T06:11:13.338Z,99.90
2019-02-21T06:13:51.626Z,99.90
2019-02-21T06:16:40.265Z,1.00
2019-02-21T06:19:29.693Z,1.00
2019-02-21T06:22:19.165Z,1.00
2019-02-21T06:25:11.688Z,1.00
2019-02-21T06:27:58.376Z,2.30
2019-02-21T06:30:35.756Z,1.00
2019-02-21T06:33:06.683Z,34.40
2019-02-21T06:35:37.243Z,17.50
2019-02-21T06:38:08.128Z,1.00
2019-02-21T06:40:39.079Z,84.40
2019-02-21T06:43:09.925Z,51.60
2019-02-21T06:45:40.413Z,91.70
2019-02-21T06:48:10.957Z,97.20
2019-02-21T06:50:41.560Z,99.90
2019-02-21T06:53:12.102Z,99.90
2019-02-21T06:55:42.639Z,99.90
2019-02-21T06:58:13.400Z,99.90
2019-02-21T07:00:46.168Z,99.90
2019-02-21T07:03:16.370Z,99.90
2019-02-21T07:05:47.119Z,99.90
2019-02-21T07:08:18.843Z,99.90
2019-02-21T07:10:49.391Z,99.90
2019-02-21T07:13:26.596Z,99.90
2019-02-21T07:15:52.273Z,99.90
2019-02-21T07:18:22.890Z,99.90
2019-02-21T07:20:53.433Z,99.90
2019-02-21T07:23:23.947Z,99.90
2019-02-21T07:25:58.142Z,99.90
2019-02-21T07:28:28.608Z,99.90
2019-02-21T07:30:59.199Z,99.90
2019-02-21T07:33:29.653Z,99.90
2019-02-21T07:36:00.127Z,99.90
2019-02-21T07:38:30.651Z,99.90
2019-02-21T07:41:01.211Z,99.90
2019-02-21T07:43:32.395Z,99.90
2019-02-21T07:46:03.007Z,12.90
2019-02-21T07:48:33.532Z,20.20
2019-02-21T07:51:04.190Z,1.00
2019-02-21T07:53:34.722Z,1.00
2019-02-21T07:56:05.332Z,1.00
2019-02-21T07:58:35.860Z,1.00
2019-02-21T08:01:06.407Z,1.00
2019-02-21T08:03:44.157Z,99.90
2019-02-21T08:06:09.368Z,99.90
2019-02-21T08:08:40.024Z,1.00
2019-02-21T08:11:11.394Z,99.90
2019-02-21T08:13:42.263Z,99.90
2019-02-21T08:16:13.093Z,1.00
2019-02-21T08:18:43.586Z,99.90
2019-02-21T08:21:14.163Z,99.90
2019-02-21T08:23:50.512Z,99.90
2019-02-21T08:27:39.511Z,1.00
2019-02-21T08:30:13.910Z,1.00
2019-02-21T08:33:02.197Z,1.00
2019-02-21T08:35:32.956Z,99.90
2019-02-21T08:38:03.645Z,99.90
2019-02-21T08:40:34.239Z,99.90
2019-02-21T08:43:04.811Z,99.90
2019-02-21T08:45:36.049Z,1.00
2019-02-21T08:48:06.626Z,53.10
2019-02-21T08:50:37.246Z,99.90
2019-02-21T08:53:07.810Z,99.90
2019-02-21T08:55:40.391Z,99.90
2019-02-21T08:58:10.695Z,99.90
2019-02-21T09:00:41.557Z,99.90
2019-02-21T09:03:12.495Z,99.90
2019-02-21T09:05:43.226Z,1.00
2019-02-21T09:08:16.526Z,99.90
2019-02-21T09:10:46.476Z,83.20
2019-02-21T09:13:17.045Z,99.90
2019-02-21T09:15:48.305Z,99.90
2019-02-21T09:18:18.868Z,1.00
2019-02-21T09:20:49.519Z,1.00
2019-02-21T09:23:20.080Z,1.00
2019-02-21T09:25:50.689Z,1.00
2019-02-21T09:28:21.283Z,99.90
2019-02-21T09:30:51.843Z,99.90
2019-02-21T09:33:22.415Z,99.90
2019-02-21T09:35:53.303Z,1.00
2019-02-21T09:38:23.857Z,1.00
2019-02-21T09:40:54.502Z,99.90
2019-02-21T09:43:25.070Z,99.90
2019-02-21T09:45:55.718Z,99.90
2019-02-21T09:48:26.292Z,99.90
2019-02-21T09:50:57.212Z,99.90
2019-02-21T09:53:28.113Z,99.90
2019-02-21T09:55:59.248Z,99.90
2019-02-21T09:58:29.830Z,99.90
2019-02-21T10:01:00.455Z,99.90
2019-02-21T10:03:31.013Z,66.50
2019-02-21T10:06:01.713Z,95.00
2019-02-21T10:08:32.465Z,38.80
2019-02-21T10:11:03.067Z,1.00
2019-02-21T10:13:33.619Z,1.00
2019-02-21T10:16:04.998Z,1.00
2019-02-21T10:18:35.681Z,1.00
2019-02-21T10:21:06.303Z,99.90
2019-02-21T10:23:36.914Z,99.90
2019-02-21T10:26:07.575Z,99.90
2019-02-21T10:28:38.296Z,94.20
2019-02-21T10:31:09.241Z,99.90
2019-02-21T10:33:46.935Z,35.40
2019-02-21T10:36:12.442Z,1.00
2019-02-21T10:38:43.643Z,1.00
2019-02-21T10:41:14.187Z,1.00
2019-02-21T10:43:45.030Z,1.00
2019-02-21T10:46:16.438Z,1.00
2019-02-21T10:48:47.045Z,13.20
2019-02-21T10:51:17.619Z,21.00
2019-02-21T10:53:48.191Z,28.10
2019-02-21T10:56:18.763Z,27.30
2019-02-21T10:58:49.360Z,8.60
2019-02-21T11:01:20.311Z,26.00
2019-02-21T11:03:50.885Z,10.30
2019-02-21T11:06:21.469Z,99.20
2019-02-21T11:08:52.016Z,55.50
2019-02-21T11:11:22.652Z,29.80
2019-02-21T11:13:53.201Z,47.70
2019-02-21T11:16:24.031Z,21.80
2019-02-21T11:18:54.599Z,9.50
2019-02-21T11:21:25.267Z,1.00
2019-02-21T11:23:55.833Z,1.00
2019-02-21T11:26:26.866Z,1.00
2019-02-21T11:28:57.412Z,1.00
2019-02-21T11:31:28.422Z,1.00
2019-02-21T11:33:58.986Z,1.00
2019-02-21T11:36:29.621Z,1.00
2019-02-21T11:39:00.308Z,1.00
2019-02-21T11:41:30.907Z,1.00
2019-02-21T11:44:01.451Z,1.00
2019-02-21T11:46:32.067Z,1.00
2019-02-21T11:49:02.600Z,1.00
2019-02-21T11:51:33.224Z,1.00
2019-02-21T11:54:03.769Z,1.00
2019-02-21T11:56:34.437Z,99.90
2019-02-21T11:59:04.970Z,99.90
2019-02-21T12:01:35.653Z,99.90
2019-02-21T12:04:06.529Z,1.00
2019-02-21T12:06:37.097Z,1.00
2019-02-21T12:09:11.113Z,1.00
2019-02-21T12:11:42.006Z,1.00
2019-02-21T12:14:12.895Z,1.00
2019-02-21T12:16:43.460Z,1.00
2019-02-21T12:19:14.052Z,1.00
2019-02-21T12:21:44.629Z,1.00
2019-02-21T12:24:15.511Z,1.00
2019-02-21T12:26:46.083Z,1.00
2019-02-21T12:29:16.687Z,1.00
2019-02-21T12:31:47.268Z,1.00
2019-02-21T12:34:18.146Z,1.00
2019-02-21T12:36:48.701Z,1.00
2019-02-21T12:39:19.553Z,99.90
2019-02-21T12:41:50.119Z,99.90
2019-02-21T12:44:20.827Z,99.90
2019-02-21T12:46:51.404Z,99.90
2019-02-21T12:49:22.067Z,99.90
2019-02-21T12:51:52.937Z,99.90
2019-02-21T12:54:24.770Z,99.90
2019-02-21T12:56:55.570Z,99.90
2019-02-21T12:59:26.216Z,99.90
2019-02-21T13:01:56.755Z,99.90
2019-02-21T13:04:27.754Z,99.90
2019-02-21T13:06:58.414Z,99.90
2019-02-21T13:09:28.956Z,99.90
2019-02-21T13:11:59.500Z,99.90
2019-02-21T13:14:30.062Z,99.90
2019-02-21T13:17:00.718Z,99.90
2019-02-21T13:19:31.294Z,99.90
2019-02-21T13:22:01.897Z,99.90
2019-02-21T13:24:32.786Z,99.90
2019-02-21T13:27:03.462Z,99.90
2019-02-21T13:29:34.042Z,99.90
2019-02-21T13:32:04.712Z,99.90
2019-02-21T13:34:35.263Z,99.90
2019-02-21T13:37:06.278Z,99.90
2019-02-21T13:39:37.073Z,99.90
2019-02-21T13:42:08.131Z,99.90
2019-02-21T13:44:38.711Z,99.90
2019-02-21T13:47:09.315Z,99.90
2019-02-21T13:49:39.888Z,99.90
2019-02-21T13:52:10.785Z,99.90
2019-02-21T13:54:41.357Z,99.90
2019-02-21T13:57:11.920Z,99.90
2019-02-21T13:59:42.851Z,99.90
2019-02-21T14:02:15.391Z,99.90
2019-02-21T14:04:46.177Z,99.90
2019-02-21T14:07:16.754Z,99.90
2019-02-21T14:09:47.379Z,99.90
2019-02-21T14:12:18.025Z,99.90
2019-02-21T14:14:48.632Z,99.90
2019-02-21T14:17:19.212Z,99.90
2019-02-21T14:19:50.173Z,99.90
2019-02-21T14:22:21.078Z,99.90
2019-02-21T14:24:51.667Z,99.90
2019-02-21T14:27:22.544Z,99.90
2019-02-21T14:29:53.135Z,99.90
2019-02-21T14:32:23.695Z,99.90
2019-02-21T14:34:54.298Z,99.90
2019-02-21T14:37:24.883Z,99.90
2019-02-21T14:39:55.586Z,99.90
2019-02-21T14:42:26.148Z,99.90
2019-02-21T14:44:56.842Z,99.90
2019-02-21T14:47:27.699Z,99.90
2019-02-21T14:49:58.266Z,99.90
2019-02-21T14:52:28.891Z,99.90
2019-02-21T14:54:59.544Z,99.90
2019-02-21T14:57:40.150Z,99.90
2019-02-21T15:00:02.877Z,99.90
2019-02-21T15:02:33.490Z,99.90
2019-02-21T15:05:04.240Z,99.90
2019-02-21T15:07:35.168Z,99.90
2019-02-21T15:10:06.013Z,99.90
2019-02-21T15:12:36.643Z,99.90
2019-02-21T15:15:08.813Z,99.90
2019-02-21T15:17:39.399Z,99.90
2019-02-21T15:20:12.370Z,99.90
2019-02-21T15:22:42.935Z,99.90
2019-02-21T15:25:13.870Z,99.90
2019-02-21T15:27:44.438Z,99.90
2019-02-21T15:30:17.746Z,99.90
2019-02-21T15:32:48.624Z,99.90
2019-02-21T15:35:19.727Z,99.90
2019-02-21T15:37:50.566Z,99.90
2019-02-21T15:40:21.394Z,99.90
2019-02-21T15:42:52.925Z,99.90
2019-02-21T15:45:24.375Z,99.90
2019-02-21T15:47:55.176Z,99.90
2019-02-21T15:50:25.791Z,99.90
2019-02-21T15:52:56.515Z,99.90
2019-02-21T15:55:27.179Z,99.90
2019-02-21T15:58:03.875Z,99.90
2019-02-21T16:00:30.325Z,99.90
2019-02-21T16:03:00.929Z,99.90
2019-02-21T16:05:31.815Z,99.90
2019-02-21T16:08:02.407Z,99.90
2019-02-21T16:10:33.034Z,99.90
2019-02-21T16:13:05.038Z,99.90
2019-02-21T16:15:35.915Z,99.90
2019-02-21T16:18:06.592Z,99.90
2019-02-21T16:20:37.184Z,99.90
2019-02-21T16:23:08.062Z,99.90
2019-02-21T16:25:38.654Z,99.90
2019-02-21T16:28:09.227Z,99.90
2019-02-21T16:30:39.798Z,99.90
2019-02-21T16:33:10.377Z,99.90
2019-02-21T16:35:40.970Z,99.90
2019-02-21T16:38:11.540Z,99.90
2019-02-21T16:40:42.216Z,99.90
2019-02-21T16:43:12.821Z,99.90
2019-02-21T16:45:47.160Z,99.90
2019-02-21T16:48:15.798Z,99.90
2019-02-21T16:50:48.506Z,99.90
2019-02-21T16:53:19.045Z,99.90
2019-02-21T16:55:49.749Z,99.90
2019-02-21T16:58:20.305Z,99.90
2019-02-21T17:00:55.922Z,99.90
2019-02-21T17:03:23.238Z,99.90
2019-02-21T17:05:54.618Z,99.90
2019-02-21T17:08:25.195Z,99.90
2019-02-21T17:10:56.126Z,99.90
2019-02-21T17:13:27.607Z,99.90
2019-02-21T17:15:58.170Z,1.00
2019-02-21T17:18:28.746Z,99.90
2019-02-21T17:20:59.315Z,1.00
2019-02-21T17:23:29.895Z,1.00
2019-02-21T17:26:00.440Z,1.00
2019-02-21T17:28:31.379Z,1.00
2019-02-21T17:31:02.386Z,1.00
2019-02-21T17:33:33.069Z,1.00
2019-02-21T17:36:03.667Z,1.00
2019-02-21T17:38:34.298Z,1.00
2019-02-21T17:41:04.861Z,1.00
2019-02-21T17:43:35.466Z,1.00
2019-02-21T17:46:06.035Z,1.00
2019-02-21T17:48:36.516Z,1.00
2019-02-21T17:51:07.081Z,1.00
2019-02-21T17:53:37.993Z,1.00
2019-02-21T17:56:08.559Z,1.00
2019-02-21T17:58:39.091Z,1.00
2019-02-21T18:01:09.700Z,1.00
2019-02-21T18:03:40.276Z,1.00
2019-02-21T18:06:11.105Z,1.00
2019-02-21T18:08:42.077Z,1.00
2019-02-21T18:11:12.797Z,1.00
2019-02-21T18:13:43.378Z,1.00
2019-02-21T18:16:14.020Z,1.00
2019-02-21T18:18:44.571Z,1.00
2019-02-21T18:21:15.157Z,1.00
2019-02-21T18:23:45.702Z,1.00
2019-02-21T18:26:21.070Z,1.00
2019-02-21T18:28:51.624Z,1.00
2019-02-21T18:31:22.292Z,1.00
2019-02-21T18:33:52.834Z,1.00
2019-02-21T18:36:24.110Z,1.00
2019-02-21T18:38:55.075Z,1.00
2019-02-21T18:41:25.741Z,1.00
2019-02-21T18:43:56.716Z,1.00
2019-02-21T18:46:27.320Z,1.00
2019-02-21T18:48:57.873Z,1.00
2019-02-21T18:51:28.470Z,1.00
2019-02-21T18:53:59.351Z,1.00
2019-02-21T18:56:29.981Z,1.00
2019-02-21T18:59:00.534Z,1.00
2019-02-21T19:01:31.665Z,1.00
2019-02-21T19:04:02.239Z,36.30
2019-02-21T19:06:32.874Z,99.90
2019-02-21T19:09:04.223Z,99.90
2019-02-21T19:11:35.229Z,99.90
2019-02-21T19:14:05.871Z,1.00
2019-02-21T19:16:36.466Z,1.00
2019-02-21T19:19:07.349Z,1.00
2019-02-21T19:21:38.324Z,1.00
2019-02-21T19:24:08.913Z,1.00
2019-02-21T19:26:40.209Z,1.00
2019-02-21T19:29:10.820Z,1.00
2019-02-21T19:31:42.019Z,1.00
2019-02-21T19:34:12.979Z,1.00
2019-02-21T19:36:43.732Z,1.00
2019-02-21T19:39:14.756Z,1.00
2019-02-21T19:41:45.335Z,1.00
2019-02-21T19:44:15.914Z,1.00
2019-02-21T19:46:46.471Z,1.00
2019-02-21T19:49:17.077Z,1.00
2019-02-21T19:51:47.853Z,1.00
2019-02-21T19:54:18.425Z,1.00
2019-02-21T19:56:49.094Z,1.00
2019-02-21T19:59:19.687Z,1.00
2019-02-21T20:01:50.872Z,1.00
2019-02-21T20:04:21.508Z,1.00
2019-02-21T20:06:52.397Z,1.00
2019-02-21T20:09:23.597Z,1.00
2019-02-21T20:11:54.193Z,1.00
2019-02-21T20:14:24.823Z,1.00
2019-02-21T20:16:55.492Z,1.00
2019-02-21T20:19:26.333Z,1.00
2019-02-21T20:21:57.230Z,1.00
2019-02-21T20:24:28.126Z,1.00
2019-02-21T20:27:00.325Z,1.00
2019-02-21T20:29:31.549Z,1.00
2019-02-21T20:32:02.140Z,1.00
2019-02-21T20:34:33.421Z,1.00
2019-02-21T20:37:04.346Z,1.00
2019-02-21T20:39:34.979Z,1.00
2019-02-21T20:42:05.548Z,1.00
2019-02-21T20:44:36.214Z,1.00
2019-02-21T20:47:06.830Z,1.00
2019-02-21T20:49:37.786Z,1.00
2019-02-21T20:52:08.415Z,1.00
2019-02-21T20:54:39.100Z,1.00
2019-02-21T20:57:09.741Z,1.00
2019-02-21T20:59:40.306Z,1.00
2019-02-21T21:02:10.902Z,1.00
2019-02-21T21:04:42.120Z,1.00
2019-02-21T21:07:12.689Z,1.00
2019-02-21T21:09:43.350Z,1.00
2019-02-21T21:12:13.899Z,1.00
2019-02-21T21:14:44.491Z,1.00
2019-02-21T21:17:15.078Z,1.00
2019-02-21T21:19:45.740Z,1.00
2019-02-21T21:22:16.622Z,1.00
2019-02-21T21:24:47.230Z,1.00
2019-02-21T21:27:18.183Z,1.00
2019-02-21T21:29:48.807Z,1.00
2019-02-21T21:32:19.376Z,1.00
2019-02-21T21:34:50.040Z,1.00
2019-02-21T21:37:20.622Z,1.00
2019-02-21T21:39:51.246Z,1.00
2019-02-21T21:42:21.814Z,1.00
2019-02-21T21:44:52.476Z,1.00
2019-02-21T21:47:23.019Z,1.00
2019-02-21T21:49:53.974Z,1.00
2019-02-21T21:52:24.547Z,1.00
2019-02-21T21:54:55.405Z,1.00
2019-02-21T21:57:26.291Z,1.00
2019-02-21T21:59:56.947Z,1.00
2019-02-21T22:02:27.796Z,1.00
2019-02-21T22:04:59.445Z,64.70
2019-02-21T22:07:30.005Z,83.00
2019-02-21T22:10:00.609Z,99.90
2019-02-21T22:12:31.163Z,99.90
2019-02-21T22:15:01.766Z,99.90
2019-02-21T22:17:32.332Z,99.90
2019-02-21T22:20:03.270Z,99.90
2019-02-21T22:22:33.846Z,99.90
2019-02-21T22:25:04.657Z,99.90
2019-02-21T22:27:35.240Z,99.90
2019-02-21T22:30:06.498Z,99.90
2019-02-21T22:32:37.122Z,99.90
2019-02-21T22:35:08.082Z,99.90
2019-02-21T22:37:38.675Z,99.90
2019-02-21T22:40:11.351Z,99.90
2019-02-21T22:42:42.273Z,99.90
2019-02-21T22:45:12.934Z,1.00
2019-02-21T22:47:43.518Z,1.00
2019-02-21T22:50:15.675Z,1.00
2019-02-21T22:52:46.262Z,1.00
2019-02-21T22:55:16.912Z,99.90
2019-02-21T22:57:47.638Z,99.90
2019-02-21T23:01:26.379Z,99.90
2019-02-21T23:04:57.311Z,99.90
2019-02-21T23:08:10.056Z,99.90
2019-02-21T23:10:40.998Z,1.00
2019-02-21T23:13:11.981Z,41.70
2019-02-21T23:15:42.599Z,1.00
2019-02-21T23:18:13.168Z,1.00
2019-02-21T23:20:43.954Z,99.90
2019-02-21T23:23:14.528Z,99.90
2019-02-21T23:25:45.398Z,99.90
2019-02-21T23:28:16.270Z,99.90
2019-02-21T23:30:47.055Z,99.90
2019-02-21T23:33:17.629Z,99.90
2019-02-21T23:35:48.280Z,99.90
2019-02-21T23:38:18.949Z,99.90
2019-02-21T23:40:49.939Z,99.90
2019-02-21T23:43:20.590Z,99.90
2019-02-21T23:45:51.468Z,99.90
2019-02-21T23:48:22.064Z,99.90
2019-02-21T23:50:52.905Z,99.90
2019-02-21T23:53:23.545Z,99.90
2019-02-21T23:55:54.115Z,99.90
2019-02-21T23:58:24.803Z,99.90
